Time;durP1;ratioP1;P1;durP2;ratioP2;P2;SDS_P1;SDS_P2;PMS_P1;PMS_P2;Temp;Humidity;BMP_temperature;BMP_pressure;BME280_temperature;BME280_humidity;BME280_pressure;Samples;Min_cycle;Max_cycle;Signal;HPM_P1;HPM_P2
2023/04/10 00:00:00;;;;;;;;;;;7.60;47.30;;;3.05;86.04;95942.75;5011695;28;19978;-51
2023/04/10 00:02:25;;;;;;;;;;;7.60;47.50;;;3.01;86.13;95943.16;5011941;28;19904;-51
2023/04/10 00:04:51;;;;;;;;;;;7.60;47.60;;;2.96;86.62;95945.59;5010879;28;20349;-49
2023/04/10 00:07:17;;;;;;;;;;;7.60;47.70;;;2.95;86.55;95943.19;5011978;28;19905;-54
2023/04/10 00:09:43;;;;;;;;;;;7.60;47.80;;;2.95;86.70;95935.28;5009745;28;19904;-49
2023/04/10 00:12:10;;;;;;;;;;;7.60;47.90;;;2.93;87.30;95939.94;5011700;28;20000;-52
2023/04/10 00:14:36;;;;;;;;;;;7.50;48.00;;;2.92;86.97;95938.34;5026335;28;20364;-49
2023/04/10 00:17:02;;;;;;;;;;;7.50;48.00;;;2.88;87.60;95923.97;5011345;28;20371;-52
2023/04/10 00:19:28;;;;;;;;;;;7.50;48.10;;;2.85;87.71;95935.75;5011716;28;19904;-52
2023/04/10 00:21:54;;;;;;;;;;;7.50;48.20;;;2.82;88.28;95936.16;5010826;28;20356;-49
2023/04/10 00:24:20;;;;;;;;;;;7.50;48.20;;;2.78;88.37;95930.47;5011760;28;19909;-49
2023/04/10 00:26:46;;;;;;;;;;;7.50;48.30;;;2.76;88.63;95927.25;5010937;28;19923;-50
2023/04/10 00:29:11;;;;;;;;;;;7.50;48.40;;;2.83;87.97;95927.22;5011422;28;19963;-48
2023/04/10 00:31:37;;;;;;;;;;;7.40;48.40;;;2.86;88.34;95926.00;5008415;28;19971;-49
2023/04/10 00:34:03;;;;;;;;;;;7.50;48.60;;;2.89;87.95;95921.16;5002812;28;19916;-52
2023/04/10 00:36:30;;;;;;;;;;;7.50;48.80;;;2.87;87.81;95920.53;5011604;28;19950;-50
2023/04/10 00:38:56;;;;;;;;;;;7.50;48.90;;;2.88;87.48;95913.44;5010505;28;19905;-50
2023/04/10 00:41:22;;;;;;;;;;;7.40;49.00;;;2.77;87.94;95918.34;5011298;28;19913;-49
2023/04/10 00:43:48;;;;;;;;;;;7.50;49.00;;;2.73;88.25;95919.78;5011222;28;20352;-50
2023/04/10 00:46:15;;;;;;;;;;;7.40;48.90;;;2.71;88.51;95921.00;5010506;28;19905;-50
2023/04/10 00:48:41;;;;;;;;;;;7.40;49.00;;;2.68;89.21;95913.50;5028478;28;20252;-52
2023/04/10 00:51:07;;;;;;;;;;;7.40;49.10;;;2.66;89.18;95918.16;5014164;28;19908;-50
2023/04/10 00:53:33;;;;;;;;;;;7.40;49.30;;;2.62;89.74;95911.72;5014912;28;19913;-50
2023/04/10 00:56:00;;;;;;;;;;;7.30;49.30;;;2.63;89.48;95913.31;5015058;28;20063;-55
2023/04/10 00:58:26;;;;;;;;;;;7.30;49.40;;;2.63;89.81;95915.94;5014295;28;19959;-51
2023/04/10 01:00:52;;;;;;;;;;;7.30;49.50;;;2.63;89.81;95914.13;5015156;28;20368;-49
2023/04/10 01:03:20;;;;;;;;;;;7.30;49.60;;;2.59;90.37;95917.38;5014260;28;19905;-50
2023/04/10 01:06:17;;;;;;;;;;;7.30;49.60;;;2.55;90.16;95912.53;5015138;28;19958;-55
2023/04/10 01:09:16;;;;;;;;;;;7.20;49.60;;;2.54;90.88;95925.91;5013630;28;20405;-51
2023/04/10 01:12:38;;;;;;;;;;;7.20;49.70;;;2.54;90.67;95924.06;5014730;28;19986;-53
2023/04/10 01:15:13;;;;;;;;;;;7.20;49.70;;;2.57;90.32;95916.75;5013806;28;19912;-54
2023/04/10 01:17:55;;;;;;;;;;;7.20;49.90;;;2.55;90.31;95923.06;5014734;28;20262;-54
2023/04/10 01:20:28;;;;;;;;;;;7.20;50.00;;;2.48;90.64;95922.25;5014636;28;20364;-53
2023/04/10 01:23:41;;;;;;;;;;;7.20;50.00;;;2.36;91.64;95920.47;5012326;28;19905;-55
2023/04/10 01:26:10;;;;;;;;;;;7.10;49.90;;;2.26;92.19;95920.88;5013407;28;20275;-53
2023/04/10 01:28:55;;;;;;;;;;;7.10;49.90;;;2.22;92.16;95914.41;5012283;28;19912;-55
2023/04/10 01:31:40;;;;;;;;;;;7.00;49.80;;;2.17;92.26;95912.38;5011000;28;19952;-54
2023/04/10 01:34:17;;;;;;;;;;;7.00;49.90;;;2.19;92.74;95912.97;5010070;28;19963;-54
2023/04/10 01:36:54;;;;;;;;;;;7.00;50.00;;;2.23;92.51;95913.41;5010777;28;20208;-47
2023/04/10 01:39:22;;;;;;;;;;;6.90;50.20;;;2.26;92.10;95913.00;5011539;28;19928;-50
2023/04/10 01:41:52;;;;;;;;;;;6.90;51.00;;;2.25;91.78;95924.50;5012803;28;19912;-55
2023/04/10 01:44:26;;;;;;;;;;;6.90;50.50;;;2.15;91.84;95918.84;5014172;28;19904;-55
2023/04/10 01:46:55;;;;;;;;;;;6.90;50.50;;;2.09;92.55;95915.22;5012250;28;20391;-53
2023/04/10 01:49:22;;;;;;;;;;;6.80;50.50;;;2.11;92.93;95917.66;5013902;28;19905;-49
2023/04/10 01:51:49;;;;;;;;;;;6.80;50.60;;;2.10;92.71;95916.84;5011879;28;19995;-52
2023/04/10 01:54:16;;;;;;;;;;;6.80;50.60;;;2.04;92.48;95917.66;5013752;28;19913;-50
2023/04/10 01:56:43;;;;;;;;;;;6.80;50.70;;;1.95;93.02;95917.06;5011400;28;20438;-49
2023/04/10 01:59:08;;;;;;;;;;;6.80;50.80;;;1.94;93.46;95919.88;5012945;28;19904;-49
2023/04/10 02:01:34;;;;;;;;;;;6.70;50.80;;;1.91;92.64;95915.00;5013342;28;19974;-51
2023/04/10 02:04:01;;;;;;;;;;;6.70;50.90;;;1.73;93.78;95919.06;5013060;28;20271;-49
2023/04/10 02:06:56;;;;;;;;;;;6.60;50.80;;;1.64;94.13;95929.97;5013689;28;19966;-51
2023/04/10 02:10:09;;;;;;;;;;;6.60;50.80;;;1.60;93.80;95916.41;5012707;28;19905;-54
2023/04/10 02:12:52;;;;;;;;;;;6.50;50.80;;;1.50;94.69;95921.22;5011418;28;19911;-53
2023/04/10 02:15:24;;;;;;;;;;;6.40;50.80;;;1.51;95.31;95922.88;5021764;28;19906;-52
2023/04/10 02:17:53;;;;;;;;;;;6.40;51.00;;;1.49;95.81;95917.81;4992691;28;20008;-54
2023/04/10 02:20:21;;;;;;;;;;;6.30;51.00;;;1.52;95.99;95920.03;4992862;28;19928;-55
2023/04/10 02:22:48;;;;;;;;;;;6.30;51.20;;;1.48;96.09;95915.38;5009235;28;20438;-53
2023/04/10 02:25:15;;;;;;;;;;;6.20;51.20;;;1.43;96.64;95913.34;5012135;28;19905;-51
2023/04/10 02:27:41;;;;;;;;;;;6.20;51.30;;;1.39;97.06;95912.13;5012270;28;19980;-54
2023/04/10 02:30:07;;;;;;;;;;;6.20;51.40;;;1.44;97.72;95909.69;5013138;28;20383;-48
2023/04/10 02:32:33;;;;;;;;;;;6.20;51.50;;;1.46;97.66;95912.94;5013126;28;19990;-52
2023/04/10 02:35:01;;;;;;;;;;;6.20;51.60;;;1.48;98.05;95907.50;5011006;28;19911;-55
2023/04/10 02:37:27;;;;;;;;;;;6.20;51.70;;;1.47;97.80;95905.88;5013090;28;20285;-54
2023/04/10 02:39:54;;;;;;;;;;;6.20;51.70;;;1.45;98.21;95913.97;5017246;28;20000;-55
2023/04/10 02:42:20;;;;;;;;;;;6.20;51.80;;;1.43;97.37;95913.34;4993145;28;19913;-50
2023/04/10 02:44:47;;;;;;;;;;;6.20;51.80;;;1.37;97.31;95914.94;4993630;28;19940;-55
2023/04/10 02:47:13;;;;;;;;;;;6.20;51.80;;;1.33;97.13;95921.59;5028229;28;20370;-55
2023/04/10 02:49:39;;;;;;;;;;;6.10;51.80;;;1.33;97.60;95926.84;5012814;28;19905;-49
2023/04/10 02:52:05;;;;;;;;;;;6.10;51.80;;;1.30;97.50;95931.69;5011830;28;19913;-52
2023/04/10 02:54:30;;;;;;;;;;;6.10;51.90;;;1.25;97.00;95927.03;5012817;28;19916;-51
2023/04/10 02:56:56;;;;;;;;;;;6.10;52.50;;;1.19;96.42;95929.63;5010420;28;20356;-48
2023/04/10 02:59:22;;;;;;;;;;;6.00;51.90;;;1.12;96.07;95927.78;5010604;28;20003;-49
2023/04/10 03:01:49;;;;;;;;;;;6.00;51.90;;;0.97;97.05;95926.31;5011339;28;19956;-51
2023/04/10 03:04:15;;;;;;;;;;;5.90;51.90;;;0.89;97.50;95927.31;5011657;28;20343;-51
2023/04/10 03:06:40;;;;;;;;;;;5.90;51.90;;;0.83;97.83;95931.50;5012640;28;19905;-49
2023/04/10 03:09:06;;;;;;;;;;;5.80;52.00;;;0.80;97.56;95926.66;5011690;28;19905;-53
2023/04/10 03:11:33;;;;;;;;;;;5.70;52.00;;;0.77;97.92;95931.50;5010729;28;20409;-50
2023/04/10 03:13:58;;;;;;;;;;;5.70;52.10;;;0.76;98.76;95930.69;5012471;28;19908;-48
2023/04/10 03:16:24;;;;;;;;;;;5.70;52.20;;;0.74;99.03;95927.44;5011737;28;19909;-49
2023/04/10 03:18:51;;;;;;;;;;;5.60;52.30;;;0.74;99.23;95934.50;5012320;28;19959;-49
2023/04/10 03:21:17;;;;;;;;;;;5.60;52.50;;;0.69;99.61;95928.03;5011157;28;20007;-51
2023/04/10 03:23:43;;;;;;;;;;;5.60;52.60;;;0.72;100.00;95937.28;5012321;28;19988;-53
2023/04/10 03:26:08;;;;;;;;;;;5.50;52.60;;;0.68;99.54;95925.59;5012216;28;19913;-54
2023/04/10 03:28:35;;;;;;;;;;;5.60;52.80;;;0.64;100.00;95933.03;5011078;28;19916;-53
2023/04/10 03:31:02;;;;;;;;;;;5.50;52.80;;;0.65;100.00;95923.34;5012254;28;20346;-51
2023/04/10 03:33:29;;;;;;;;;;;5.50;52.80;;;0.64;100.00;95929.59;5011203;28;19995;-51
2023/04/10 03:35:56;;;;;;;;;;;5.50;53.00;;;0.65;100.00;95915.50;5012187;28;19909;-47
2023/04/10 03:38:22;;;;;;;;;;;5.50;53.00;;;0.70;100.00;95920.97;5011910;28;19905;-49
2023/04/10 03:40:48;;;;;;;;;;;5.50;53.10;;;0.72;100.00;95912.91;5011335;28;19905;-50
2023/04/10 03:43:13;;;;;;;;;;;5.50;53.20;;;0.77;100.00;95924.44;5011881;28;19919;-49
2023/04/10 03:45:39;;;;;;;;;;;5.50;53.30;;;0.81;100.00;95917.78;5011050;28;20277;-49
2023/04/10 03:48:05;;;;;;;;;;;5.60;53.40;;;0.86;100.00;95914.59;5012007;28;19932;-52
2023/04/10 03:50:31;;;;;;;;;;;5.60;53.40;;;0.92;100.00;95916.44;5012031;28;19911;-51
2023/04/10 03:52:57;;;;;;;;;;;5.60;54.10;;;1.06;100.00;95914.66;5010851;28;20323;-50
2023/04/10 03:55:22;;;;;;;;;;;5.70;53.60;;;1.20;100.00;95918.94;5011610;28;19997;-50
2023/04/10 03:57:49;;;;;;;;;;;5.70;53.60;;;1.18;100.00;95915.69;5011037;28;19905;-50
2023/04/10 04:00:15;;;;;;;;;;;5.80;53.60;;;1.39;100.00;95909.50;5010131;28;19909;-49
2023/04/10 04:02:42;;;;;;;;;;;5.80;53.60;;;1.60;99.43;95914.59;4996288;28;19909;-50
2023/04/10 04:05:08;;;;;;;;;;;5.90;53.80;;;1.61;97.88;95905.72;5010896;28;19905;-52
2023/04/10 04:07:34;;;;;;;;;;;6.00;53.80;;;1.65;97.95;95910.56;5011589;28;19905;-49
2023/04/10 04:10:01;;;;;;;;;;;6.10;53.80;;;1.72;97.52;95911.38;5010585;28;19909;-50
2023/04/10 04:12:26;;;;;;;;;;;6.10;53.80;;;1.81;97.06;95910.97;5011406;28;20007;-50
2023/04/10 04:14:52;;;;;;;;;;;6.20;53.80;;;1.85;96.00;95911.41;5010839;28;20003;-49
2023/04/10 04:17:18;;;;;;;;;;;6.20;53.80;;;1.85;96.28;95908.78;5010914;28;20010;-49
2023/04/10 04:19:44;;;;;;;;;;;6.30;53.80;;;1.82;95.85;95904.72;4994760;28;20277;-52
2023/04/10 04:22:10;;;;;;;;;;;6.40;53.80;;;1.82;95.81;95899.47;4998265;28;19905;-50
2023/04/10 04:24:36;;;;;;;;;;;6.40;53.80;;;1.80;95.79;95905.94;4995345;28;19905;-49
2023/04/10 04:27:02;;;;;;;;;;;6.40;53.70;;;1.85;95.10;95914.03;4997662;28;19912;-50
2023/04/10 04:29:28;;;;;;;;;;;6.50;53.70;;;1.82;94.86;95904.72;5015033;28;20407;-52
2023/04/10 04:31:54;;;;;;;;;;;6.50;53.70;;;1.82;94.84;95909.97;5014084;28;20008;-51
2023/04/10 04:34:20;;;;;;;;;;;6.50;53.70;;;1.82;95.64;95917.06;5014783;28;19948;-52
2023/04/10 04:36:45;;;;;;;;;;;6.50;53.70;;;1.84;94.18;95913.19;4999045;28;20360;-52
2023/04/10 04:39:11;;;;;;;;;;;6.50;53.60;;;1.79;93.89;95920.06;4998346;28;19909;-50
2023/04/10 04:41:37;;;;;;;;;;;6.50;53.50;;;1.70;92.71;95918.66;5015162;28;20399;-53
2023/04/10 04:44:05;;;;;;;;;;;6.40;53.40;;;1.56;93.58;95916.00;5030570;28;20287;-50
2023/04/10 04:46:31;;;;;;;;;;;6.40;53.40;;;1.47;93.92;95921.63;5014071;28;19905;-49
2023/04/10 04:48:56;;;;;;;;;;;6.40;53.30;;;1.39;93.71;95931.31;5015014;28;20008;-51
2023/04/10 04:51:22;;;;;;;;;;;6.30;53.30;;;1.32;93.89;95924.44;5013912;28;19927;-53
2023/04/10 04:53:48;;;;;;;;;;;6.20;53.30;;;1.20;95.06;95924.19;5014830;28;19913;-52
2023/04/10 04:56:14;;;;;;;;;;;6.20;53.30;;;1.12;95.15;95924.38;5014684;28;19909;-52
2023/04/10 04:58:40;;;;;;;;;;;6.10;53.30;;;1.06;95.27;95927.78;5013661;28;19905;-54
2023/04/10 05:01:06;;;;;;;;;;;6.00;53.30;;;0.99;95.06;95935.63;5014684;28;19905;-52
2023/04/10 05:03:32;;;;;;;;;;;6.00;53.30;;;0.91;95.63;95943.69;5013781;28;20284;-54
2023/04/10 05:05:58;;;;;;;;;;;6.00;53.40;;;0.84;96.51;95946.25;5014700;28;19912;-53
2023/04/10 05:08:24;;;;;;;;;;;5.90;53.40;;;0.86;96.74;95951.31;5013694;28;20047;-51
2023/04/10 05:10:50;;;;;;;;;;;5.90;53.50;;;0.91;97.85;95951.53;5013460;28;20401;-54
2023/04/10 05:13:16;;;;;;;;;;;5.90;53.60;;;0.96;98.25;95943.06;5014370;28;20268;-54
2023/04/10 05:15:43;;;;;;;;;;;5.90;53.60;;;1.02;98.14;95944.91;5013591;28;20371;-54
2023/04/10 05:18:09;;;;;;;;;;;5.90;53.70;;;1.08;98.33;95949.38;5013222;28;19909;-53
2023/04/10 05:20:35;;;;;;;;;;;6.00;53.80;;;1.07;97.42;95948.56;5014196;28;19947;-50
2023/04/10 05:23:02;;;;;;;;;;;6.00;53.90;;;1.00;98.04;95944.28;5012298;28;19905;-50
2023/04/10 05:25:28;;;;;;;;;;;6.00;53.90;;;1.02;98.68;95943.09;5014463;28;19927;-51
2023/04/10 05:27:54;;;;;;;;;;;6.00;53.80;;;1.04;98.64;95938.47;5013292;28;20376;-49
2023/04/10 05:30:20;;;;;;;;;;;6.10;53.90;;;1.07;99.57;95927.59;5014219;28;19905;-49
2023/04/10 05:32:46;;;;;;;;;;;6.20;53.90;;;1.12;100.00;95933.03;5012969;28;20280;-55
2023/04/10 05:35:12;;;;;;;;;;;6.20;53.90;;;1.23;100.00;95933.50;5013738;28;20387;-55
2023/04/10 05:37:37;;;;;;;;;;;6.30;53.90;;;1.34;100.00;95925.03;5014098;28;20058;-50
2023/04/10 05:40:04;;;;;;;;;;;6.40;54.00;;;1.46;100.00;95933.16;5013077;28;20360;-53
2023/04/10 05:42:30;;;;;;;;;;;6.50;54.00;;;1.58;100.00;95928.94;5013795;28;20392;-54
2023/04/10 05:44:56;;;;;;;;;;;6.70;54.10;;;1.74;100.00;95927.75;4998539;28;19944;-53
2023/04/10 05:47:21;;;;;;;;;;;6.80;54.10;;;1.94;100.00;95933.00;5012659;28;19912;-53
2023/04/10 05:49:47;;;;;;;;;;;7.00;54.10;;;2.15;100.00;95940.69;5013665;28;19971;-53
2023/04/10 05:52:13;;;;;;;;;;;7.30;54.20;;;2.38;99.66;95945.50;5012859;28;20400;-52
2023/04/10 05:54:39;;;;;;;;;;;7.50;54.10;;;2.59;98.71;95941.06;5013853;28;19955;-54
2023/04/10 05:57:04;;;;;;;;;;;7.80;54.20;;;2.82;98.13;95945.84;4968857;28;27027;-54
2023/04/10 05:59:30;;;;;;;;;;;8.00;54.10;;;3.07;97.03;95949.44;5009027;28;20383;-53
2023/04/10 06:01:56;;;;;;;;;;;8.30;54.00;;;3.33;95.50;95942.44;5013466;28;19908;-53
2023/04/10 06:04:22;;;;;;;;;;;8.50;53.90;;;3.61;95.20;95942.88;5012706;28;19912;-51
2023/04/10 06:06:48;;;;;;;;;;;8.80;53.90;;;3.86;93.59;95947.41;5002917;28;20365;-49
2023/04/10 06:09:14;;;;;;;;;;;9.10;53.80;;;4.03;90.77;95942.41;4994486;28;21204;-49
2023/04/10 06:11:40;;;;;;;;;;;9.30;53.70;;;4.17;89.42;95957.13;4994236;28;20400;-49
2023/04/10 06:14:06;;;;;;;;;;;9.50;53.50;;;4.36;89.05;95953.50;4994126;28;20003;-49
2023/04/10 06:16:32;;;;;;;;;;;9.70;53.30;;;4.48;87.57;95947.50;5000823;28;19911;-50
2023/04/10 06:18:58;;;;;;;;;;;9.90;53.20;;;4.69;87.21;95955.00;4997075;28;20304;-51
2023/04/10 06:21:23;;;;;;;;;;;10.00;53.00;;;4.85;87.01;95948.34;4998286;28;20364;-54
2023/04/10 06:23:50;;;;;;;;;;;10.20;53.00;;;4.93;85.01;95958.63;5004772;28;19917;-54
2023/04/10 06:26:16;;;;;;;;;;;10.40;52.80;;;4.95;83.77;95950.47;4995911;28;19955;-52
2023/04/10 06:28:42;;;;;;;;;;;10.40;53.20;;;5.01;83.03;95955.69;5008545;28;20010;-53
2023/04/10 06:31:07;;;;;;;;;;;10.60;52.50;;;5.24;82.73;95941.84;5013208;28;19905;-55
2023/04/10 06:33:36;;;;;;;;;;;10.70;52.40;;;5.41;82.13;95949.16;5011614;28;19962;-55
2023/04/10 06:36:03;;;;;;;;;;;10.80;52.30;;;5.42;80.65;95948.94;5010869;28;19912;-52
2023/04/10 06:38:29;;;;;;;;;;;11.00;52.20;;;5.55;79.30;95951.41;4998067;28;19905;-50
2023/04/10 06:40:55;;;;;;;;;;;11.20;52.00;;;5.72;79.74;95951.56;4999622;28;19932;-51
2023/04/10 06:43:21;;;;;;;;;;;11.30;51.80;;;5.82;77.94;95952.88;4990643;28;20408;-50
2023/04/10 06:45:47;;;;;;;;;;;11.40;51.70;;;5.90;77.30;95955.19;5001281;28;19911;-51
2023/04/10 06:48:13;;;;;;;;;;;11.50;51.50;;;5.87;76.02;95956.44;5007450;28;19944;-51
2023/04/10 06:50:39;;;;;;;;;;;11.60;51.30;;;5.99;77.08;95956.53;4994253;28;20360;-50
2023/04/10 06:53:05;;;;;;;;;;;11.70;51.20;;;6.14;77.68;95956.06;5000471;28;19962;-48
2023/04/10 06:55:31;;;;;;;;;;;11.80;51.10;;;6.30;76.37;95944.84;5007434;28;19999;-49
2023/04/10 06:57:56;;;;;;;;;;;12.00;51.00;;;6.45;74.81;95947.84;5003435;28;19912;-51
2023/04/10 07:00:24;;;;;;;;;;;12.10;50.90;;;6.68;74.19;95936.47;5004961;28;19920;-48
2023/04/10 07:02:50;;;;;;;;;;;12.40;50.70;;;7.01;72.59;95944.81;5003489;28;20295;-50
2023/04/10 07:05:16;;;;;;;;;;;12.70;50.50;;;7.25;70.90;95945.59;5004484;28;19905;-51
2023/04/10 07:07:42;;;;;;;;;;;13.00;50.30;;;7.41;69.26;95931.59;5022931;28;19905;-52
2023/04/10 07:10:09;;;;;;;;;;;13.40;50.10;;;7.55;69.06;95932.94;5001382;28;19905;-50
2023/04/10 07:12:34;;;;;;;;;;;13.60;49.80;;;7.92;68.66;95937.81;4992575;28;19909;-51
2023/04/10 07:15:00;;;;;;;;;;;13.90;49.60;;;8.01;66.31;95943.56;4994385;28;19916;-49
2023/04/10 07:17:26;;;;;;;;;;;14.20;49.30;;;8.19;66.46;95939.88;5012193;28;19944;-52
2023/04/10 07:19:52;;;;;;;;;;;14.50;49.00;;;8.20;65.55;95944.94;5012074;28;19905;-54
2023/04/10 07:22:17;;;;;;;;;;;14.70;48.60;;;8.51;64.49;95946.25;5011380;28;19912;-54
2023/04/10 07:24:43;;;;;;;;;;;15.00;48.40;;;8.88;63.77;95950.25;5012051;28;19905;-50
2023/04/10 07:27:09;;;;;;;;;;;15.30;48.20;;;9.08;63.17;95955.03;5011169;28;19908;-53
2023/04/10 07:29:34;;;;;;;;;;;15.50;47.90;;;9.44;61.72;95948.31;5011827;28;19909;-53
2023/04/10 07:32:00;;;;;;;;;;;15.90;47.70;;;9.72;60.67;95952.63;5011964;28;19955;-50
2023/04/10 07:34:26;;;;;;;;;;;16.20;47.50;;;9.96;59.48;95947.81;5010863;28;19909;-49
2023/04/10 07:36:52;;;;;;;;;;;16.50;47.10;;;10.15;58.52;95946.41;5012050;28;20007;-50
2023/04/10 07:39:17;;;;;;;;;;;16.70;46.80;;;10.29;58.54;95946.03;5006009;28;19911;-49
2023/04/10 07:41:43;;;;;;;;;;;16.90;46.30;;;10.40;57.65;95940.53;4993929;28;19913;-49
2023/04/10 07:44:10;;;;;;;;;;;17.10;46.00;;;10.73;57.09;95949.28;4992097;28;19912;-49
2023/04/10 07:46:36;;;;;;;;;;;17.30;45.80;;;10.75;55.74;95941.84;5006449;28;20032;-52
2023/04/10 07:49:02;;;;;;;;;;;17.50;45.50;;;10.97;55.77;95947.03;5011710;28;19911;-52
2023/04/10 07:51:28;;;;;;;;;;;17.70;45.20;;;11.22;55.01;95943.72;5008591;28;20396;-52
2023/04/10 07:53:55;;;;;;;;;;;17.90;45.60;;;11.49;53.83;95950.75;5010819;28;19909;-54
2023/04/10 07:56:21;;;;;;;;;;;18.10;44.60;;;11.70;52.62;95954.31;5011760;28;20510;-51
2023/04/10 07:58:48;;;;;;;;;;;18.30;44.40;;;11.88;52.61;95943.19;5014850;28;20378;-51
2023/04/10 08:01:14;;;;;;;;;;;18.50;44.20;;;12.08;51.29;95950.41;5014769;28;19905;-52
2023/04/10 08:03:46;;;;;;;;;;;18.70;43.80;;;11.93;51.97;95953.06;5013695;28;19905;-51
2023/04/10 08:06:12;;;;;;;;;;;18.90;43.40;;;12.30;50.39;95952.03;5014801;28;19905;-55
2023/04/10 08:08:41;;;;;;;;;;;19.10;43.20;;;12.56;49.81;95959.00;5011529;28;19916;-50
2023/04/10 08:11:32;;;;;;;;;;;19.40;43.00;;;12.87;49.40;95958.97;5011284;28;20003;-50
2023/04/10 08:14:01;;;;;;;;;;;19.60;42.60;;;13.08;49.09;95962.41;5005250;28;19910;-54
2023/04/10 08:16:30;;;;;;;;;;;19.80;42.30;;;13.21;49.19;95956.50;5006771;28;19959;-54
2023/04/10 08:18:57;;;;;;;;;;;20.00;42.10;;;13.35;48.35;95957.56;5004225;28;19905;-51
2023/04/10 08:21:26;;;;;;;;;;;20.30;41.90;;;13.66;48.36;95962.78;5003785;28;19905;-50
2023/04/10 08:23:58;;;;;;;;;;;20.50;41.70;;;13.90;47.17;95960.28;5010738;28;19905;-54
2023/04/10 08:26:26;;;;;;;;;;;20.70;41.30;;;14.06;47.63;95955.63;5013327;28;19909;-54
2023/04/10 08:28:54;;;;;;;;;;;20.90;41.10;;;14.15;46.94;95948.59;5002767;28;19940;-54
2023/04/10 08:31:23;;;;;;;;;;;21.10;40.80;;;14.01;46.42;95955.69;4994810;28;19996;-56
2023/04/10 08:33:49;;;;;;;;;;;21.20;40.50;;;14.15;46.30;95953.97;4994580;28;19913;-53
2023/04/10 08:36:15;;;;;;;;;;;21.30;40.30;;;14.45;44.99;95954.84;4995645;28;19916;-54
2023/04/10 08:38:43;;;;;;;;;;;21.50;40.10;;;14.88;45.10;95947.78;4995278;28;19909;-53
2023/04/10 08:41:13;;;;;;;;;;;21.70;40.00;;;15.01;44.54;95946.31;5013309;28;19912;-53
2023/04/10 08:43:39;;;;;;;;;;;22.00;40.30;;;15.24;43.42;95942.06;5015148;28;20344;-56
2023/04/10 08:46:05;;;;;;;;;;;22.10;39.40;;;15.50;42.30;95950.63;5014004;28;19956;-49
2023/04/10 08:49:16;;;;;;;;;;;22.20;39.20;;;15.49;42.09;95952.50;5014968;28;19959;-49
2023/04/10 08:51:50;;;;;;;;;;;22.40;38.90;;;15.68;41.73;95952.59;5015905;28;19905;-54
2023/04/10 08:54:28;;;;;;;;;;;22.60;38.70;;;16.00;41.92;95955.69;5014991;28;19908;-56
2023/04/10 08:56:55;;;;;;;;;;;22.80;38.50;;;16.31;41.89;95961.41;5008796;28;20326;-54
2023/04/10 08:59:22;;;;;;;;;;;23.10;38.30;;;16.15;41.74;95958.94;5014605;28;20390;-52
2023/04/10 09:01:48;;;;;;;;;;;23.30;37.90;;;16.22;42.75;95968.53;5014460;28;19912;-55
2023/04/10 09:04:15;;;;;;;;;;;23.40;37.60;;;16.68;42.70;95957.88;5013508;28;19905;-55
2023/04/10 09:06:41;;;;;;;;;;;23.60;37.50;;;16.93;40.18;95954.00;5013575;28;19904;-55
2023/04/10 09:09:08;;;;;;;;;;;23.80;37.80;;;17.35;40.15;95954.84;5012729;28;19927;-50
2023/04/10 09:11:55;;;;;;;;;;;24.10;37.30;;;17.36;39.53;95956.47;5029846;28;19943;-56
2023/04/10 09:14:24;;;;;;;;;;;24.30;37.00;;;17.23;39.56;95949.16;5014476;28;20050;-55
2023/04/10 09:16:52;;;;;;;;;;;24.50;36.70;;;17.56;38.88;95950.66;5003278;28;19959;-55
2023/04/10 09:19:33;;;;;;;;;;;24.70;36.60;;;17.83;40.36;95949.09;5001629;28;19986;-55
2023/04/10 09:21:59;;;;;;;;;;;25.00;36.20;;;17.69;38.00;95943.69;5003597;28;20284;-56
2023/04/10 09:24:26;;;;;;;;;;;25.20;36.00;;;17.99;38.74;95939.56;5014273;28;19916;-50
2023/04/10 09:26:52;;;;;;;;;;;25.40;35.70;;;17.84;38.11;95931.81;4999769;28;19905;-53
2023/04/10 09:29:19;;;;;;;;;;;25.50;35.40;;;18.06;38.17;95936.47;5007380;28;20378;-50
2023/04/10 09:31:45;;;;;;;;;;;25.60;35.10;;;18.36;37.33;95926.88;5004174;28;19961;-51
2023/04/10 09:34:22;;;;;;;;;;;25.80;35.00;;;18.51;37.21;95925.72;4998779;28;19916;-51
2023/04/10 09:36:58;;;;;;;;;;;25.90;34.80;;;17.89;37.47;95937.09;4993074;28;19905;-49
2023/04/10 09:39:44;;;;;;;;;;;26.10;34.60;;;18.41;37.66;95931.34;5004786;28;20303;-52
2023/04/10 09:42:11;;;;;;;;;;;26.30;34.50;;;18.92;36.83;95930.91;4996404;28;19950;-50
2023/04/10 09:44:39;;;;;;;;;;;26.50;34.40;;;19.32;35.92;95924.78;4994359;28;19905;-53
2023/04/10 09:47:20;;;;;;;;;;;26.70;34.30;;;19.69;34.91;95928.91;4993942;28;20276;-51
2023/04/10 09:49:48;;;;;;;;;;;27.00;34.10;;;19.95;34.80;95920.84;4993021;28;19905;-52
2023/04/10 09:52:34;;;;;;;;;;;27.40;34.00;;;19.69;36.01;95920.00;5003546;28;20356;-52
2023/04/10 09:55:07;;;;;;;;;;;27.60;33.50;;;19.91;34.06;95924.50;4993829;28;19916;-53
2023/04/10 09:57:35;;;;;;;;;;;27.80;33.20;;;20.06;34.02;95911.31;4999395;28;19927;-53
2023/04/10 10:00:07;;;;;;;;;;;28.00;33.10;;;20.29;33.84;95921.97;5013520;28;19955;-50
2023/04/10 10:02:40;;;;;;;;;;;28.30;32.90;;;20.75;33.71;95915.13;5013192;28;19928;-51
2023/04/10 10:05:09;;;;;;;;;;;28.60;32.70;;;21.07;32.01;95908.34;5012672;28;19911;-51
2023/04/10 10:07:37;;;;;;;;;;;28.90;32.60;;;21.08;33.06;95907.22;5012364;28;19909;-51
2023/04/10 10:10:05;;;;;;;;;;;29.30;32.30;;;21.01;32.64;95904.22;5012327;28;20023;-52
2023/04/10 10:12:44;;;;;;;;;;;29.50;32.10;;;20.90;33.12;95892.97;5028399;28;19909;-52
2023/04/10 10:15:35;;;;;;;;;;;29.60;31.60;;;20.49;32.28;95890.78;5012378;28;19912;-54
2023/04/10 10:18:44;;;;;;;;;;;29.50;31.30;;;20.14;33.46;95877.25;5013384;28;20287;-53
2023/04/10 10:21:10;;;;;;;;;;;29.30;31.20;;;20.31;33.46;95879.19;4978153;28;19916;-50
2023/04/10 10:23:37;;;;;;;;;;;29.40;31.20;;;20.90;33.08;95881.31;5012142;28;19905;-51
2023/04/10 10:26:05;;;;;;;;;;;29.50;31.20;;;21.34;32.46;95876.53;5013347;28;20008;-50
2023/04/10 10:28:33;;;;;;;;;;;29.60;31.00;;;21.46;31.84;95873.94;5012376;28;19978;-50
2023/04/10 10:31:01;;;;;;;;;;;29.80;31.00;;;21.51;32.06;95870.28;5013092;28;20309;-54
2023/04/10 10:33:29;;;;;;;;;;;30.00;30.90;;;21.18;31.83;95862.75;5012131;28;19909;-52
2023/04/10 10:36:05;;;;;;;;;;;30.00;30.70;;;21.42;30.79;95864.91;5013348;28;20287;-52
2023/04/10 10:38:32;;;;;;;;;;;29.90;30.50;;;21.48;31.12;95867.09;5011969;28;19962;-53
2023/04/10 10:41:23;;;;;;;;;;;30.10;30.40;;;21.76;30.73;95860.41;5012242;28;20054;-52
2023/04/10 10:44:00;;;;;;;;;;;30.10;30.10;;;21.76;30.89;95855.75;5011691;28;19935;-53
2023/04/10 10:46:41;;;;;;;;;;;30.20;30.10;;;21.68;30.42;95859.31;5017152;28;19972;-53
2023/04/10 10:49:07;;;;;;;;;;;30.10;30.00;;;21.90;30.19;95848.16;5012763;28;19916;-53
2023/04/10 10:51:47;;;;;;;;;;;30.00;29.90;;;21.86;30.09;95835.59;5011917;28;19905;-51
2023/04/10 10:54:33;;;;;;;;;;;30.10;29.90;;;22.12;30.77;95827.25;5012680;28;19909;-57
2023/04/10 10:57:02;;;;;;;;;;;30.20;29.80;;;22.16;30.82;95834.44;5011773;28;19931;-52
2023/04/10 10:59:42;;;;;;;;;;;30.40;29.70;;;21.84;30.72;95827.81;5012598;28;20003;-55
2023/04/10 11:02:18;;;;;;;;;;;30.60;29.60;;;22.43;30.65;95815.97;5012425;28;19905;-51
2023/04/10 11:04:47;;;;;;;;;;;30.80;29.40;;;22.65;29.12;95820.22;5011168;28;19915;-53
2023/04/10 11:07:15;;;;;;;;;;;31.10;29.20;;;22.73;30.04;95819.34;4992987;28;19905;-53
2023/04/10 11:09:55;;;;;;;;;;;31.30;29.10;;;23.07;29.40;95822.81;4999145;28;19999;-52
2023/04/10 11:12:24;;;;;;;;;;;31.40;29.00;;;22.96;27.77;95825.16;5012712;28;20003;-51
2023/04/10 11:14:58;;;;;;;;;;;31.60;28.80;;;22.49;28.13;95817.34;5011011;28;19908;-53
2023/04/10 11:17:52;;;;;;;;;;;31.70;28.50;;;22.46;27.97;95825.38;4992952;28;19944;-52
2023/04/10 11:20:20;;;;;;;;;;;31.80;28.40;;;22.63;27.91;95814.34;4992685;28;20276;-54
2023/04/10 11:23:09;;;;;;;;;;;31.80;28.20;;;22.84;28.04;95817.75;5007315;28;19923;-55
2023/04/10 11:25:52;;;;;;;;;;;32.00;28.20;;;23.37;27.94;95817.13;5012249;28;19905;-51
2023/04/10 11:28:44;;;;;;;;;;;32.20;28.10;;;23.59;27.39;95822.09;5011369;28;19905;-52
2023/04/10 11:31:21;;;;;;;;;;;32.40;27.90;;;23.00;28.25;95812.50;5009210;28;19905;-52
2023/04/10 11:34:00;;;;;;;;;;;32.60;27.70;;;23.16;27.98;95809.09;5011235;28;19909;-55
2023/04/10 11:36:26;;;;;;;;;;;32.80;27.70;;;23.27;28.62;95808.31;5010837;28;19904;-56